Terminal Aerodrome Forecast
Issued by NWS

Home | Current Version | Previous Version | Text Only | Print | Product List | Glossary On
Versions: 1 2 3 4 5 6 7 8 9 10 11 12 13 14 15 16 17 18 19 20 21 22 23 24 25 26
000
FTUS42 KMFL 271120
TAFTMB
TAF
KTMB 271120Z 2712/2812 VRB12G20KT 6SM SHRA SCT020 SCT080
     FM271300 08008KT P6SM VCSH SCT025 SCT050
     FM271400 08012KT P6SM VCTS SCT030CB BKN080
     FM280000 09005KT P6SM VCSH FEW025 SCT080=

USA.gov is the U.S. government's official web portal to all federal, state and local government web resources and services.